Time;durP1;ratioP1;P1;durP2;ratioP2;P2;SDS_P1;SDS_P2;PMS_P1;PMS_P2;Temp;Humidity;BMP_temperature;BMP_pressure;BME280_temperature;BME280_humidity;BME280_pressure;Samples;Min_cycle;Max_cycle;Signal;HPM_P1;HPM_P2
2023/09/26 00:01:27;;;;;;;9.02;5.80;;;;;;;13.44;73.77;102416.81;7394586;19;20022;-65
2023/09/26 00:03:55;;;;;;;9.18;5.20;;;;;;;13.50;73.89;102416.41;7395013;19;20082;-64
2023/09/26 00:06:24;;;;;;;8.93;5.28;;;;;;;13.79;72.52;102413.84;7394920;19;20408;-65
2023/09/26 00:08:54;;;;;;;8.35;5.00;;;;;;;13.94;71.69;102415.56;7392826;19;20026;-65
2023/09/26 00:11:22;;;;;;;8.90;4.85;;;;;;;13.96;71.60;102410.97;7393257;19;20125;-65
2023/09/26 00:13:50;;;;;;;9.00;5.30;;;;;;;14.02;71.42;102412.44;7393623;19;20085;-65
2023/09/26 00:16:18;;;;;;;8.07;4.63;;;;;;;14.04;71.14;102408.72;7392823;19;20042;-65
2023/09/26 00:18:46;;;;;;;7.55;4.80;;;;;;;14.06;71.03;102409.47;7391267;19;20090;-65
2023/09/26 00:21:14;;;;;;;8.60;5.38;;;;;;;14.09;70.81;102408.44;7394292;19;20014;-66
2023/09/26 00:23:41;;;;;;;8.27;5.35;;;;;;;13.66;71.90;102403.06;7394013;19;20082;-65
2023/09/26 00:26:09;;;;;;;8.30;5.50;;;;;;;13.39;73.13;102413.53;7394185;19;20011;-65
2023/09/26 00:28:36;;;;;;;9.00;5.03;;;;;;;13.61;72.13;102407.81;7392293;19;20505;-66
2023/09/26 00:31:04;;;;;;;8.73;4.80;;;;;;;13.69;71.83;102416.19;7394426;19;20031;-65
2023/09/26 00:33:32;;;;;;;7.65;5.07;;;;;;;13.72;71.69;102413.34;7392602;19;20093;-65
2023/09/26 00:36:12;;;;;;;9.63;4.85;;;;;;;13.67;71.53;102420.75;7393375;19;20462;-65
2023/09/26 00:38:40;;;;;;;8.88;5.40;;;;;;;13.27;73.12;102423.09;7392203;19;20023;-65
2023/09/26 00:41:07;;;;;;;8.25;5.47;;;;;;;13.00;74.06;102417.53;7393679;19;20029;-65
2023/09/26 00:43:35;;;;;;;8.57;4.88;;;;;;;13.30;73.44;102416.75;7392676;19;20022;-64
2023/09/26 00:46:06;;;;;;;9.93;5.22;;;;;;;13.53;72.55;102420.72;7393114;19;20018;-65
2023/09/26 00:48:35;;;;;;;8.48;4.97;;;;;;;13.71;71.69;102410.78;7391355;19;20018;-65
2023/09/26 00:51:05;;;;;;;8.98;4.97;;;;;;;13.82;71.58;102406.50;7393114;19;20025;-65
2023/09/26 00:53:37;;;;;;;8.00;5.07;;;;;;;13.83;71.19;102412.69;7391911;19;20082;-67
2023/09/26 00:56:05;;;;;;;8.13;4.68;;;;;;;13.78;71.23;102412.97;7392567;19;20014;-65
2023/09/26 00:58:33;;;;;;;7.72;4.75;;;;;;;13.74;71.29;102426.56;7389741;19;20496;-65
2023/09/26 01:01:02;;;;;;;7.65;4.95;;;;;;;13.73;71.27;102415.03;7392635;19;20022;-65
2023/09/26 01:03:29;;;;;;;9.52;4.90;;;;;;;13.70;71.15;102414.38;7393390;19;20487;-64
2023/09/26 01:05:58;;;;;;;9.07;5.53;;;;;;;13.10;73.13;102418.72;7393195;19;20029;-65
2023/09/26 01:08:26;;;;;;;8.10;5.57;;;;;;;12.91;73.73;102421.59;7391078;19;20020;-64
2023/09/26 01:10:53;;;;;;;8.60;5.38;;;;;;;12.62;74.73;102414.38;7392518;19;20029;-65
2023/09/26 01:13:21;;;;;;;6.32;4.38;;;;;;;12.90;73.98;102414.56;7391363;19;20011;-64
2023/09/26 01:15:48;;;;;;;10.70;5.22;;;;;;;12.99;73.33;102407.00;7392701;19;20092;-64
2023/09/26 01:18:17;;;;;;;7.97;5.30;;;;;;;12.81;74.43;102415.06;7391197;19;20023;-64
2023/09/26 01:20:45;;;;;;;6.80;4.68;;;;;;;13.05;74.01;102414.59;7392328;19;20019;-64
2023/09/26 01:23:15;;;;;;;7.80;4.82;;;;;;;13.19;72.75;102406.69;7392862;19;20043;-64
2023/09/26 01:25:43;;;;;;;7.57;5.15;;;;;;;12.92;73.73;102403.81;7392590;19;20048;-66
2023/09/26 01:28:15;;;;;;;8.45;5.22;;;;;;;12.59;74.59;102414.53;7390422;19;20023;-63
2023/09/26 01:30:43;;;;;;;6.95;4.35;;;;;;;12.73;74.37;102401.34;7392025;19;20531;-64
2023/09/26 01:33:19;;;;;;;8.10;4.57;;;;;;;13.06;72.74;102400.38;7391428;19;20022;-65
2023/09/26 01:35:46;;;;;;;7.55;4.80;;;;;;;13.14;72.01;102400.78;7392004;19;20025;-65
2023/09/26 01:38:14;;;;;;;8.52;4.75;;;;;;;12.81;72.98;102400.91;7388824;19;20399;-66
2023/09/26 01:40:42;;;;;;;7.65;4.50;;;;;;;12.60;73.65;102397.69;7392125;19;20038;-65
2023/09/26 01:43:09;;;;;;;7.85;4.50;;;;;;;12.55;73.60;102397.06;7391539;19;20081;-64
2023/09/26 01:45:40;;;;;;;6.40;4.28;;;;;;;12.53;74.10;102394.50;7391500;19;20022;-66
2023/09/26 01:48:09;;;;;;;8.07;4.72;;;;;;;12.51;74.38;102387.53;7390426;19;20738;-65
2023/09/26 01:50:38;;;;;;;8.13;4.60;;;;;;;12.61;73.87;102392.25;7391513;19;20053;-65
2023/09/26 01:53:05;;;;;;;7.07;4.38;;;;;;;12.57;74.15;102389.88;7391154;19;20359;-64
2023/09/26 01:55:33;;;;;;;6.38;4.15;;;;;;;12.69;73.92;102387.38;7389889;19;20032;-64
2023/09/26 01:58:00;;;;;;;8.02;4.93;;;;;;;12.49;74.35;102389.44;7388609;19;20018;-64
2023/09/26 02:00:29;;;;;;;7.38;4.80;;;;;;;12.42;74.53;102391.56;7391488;19;20019;-64
2023/09/26 02:02:59;;;;;;;8.30;4.88;;;;;;;12.42;74.61;102388.91;7391324;19;20050;-64
2023/09/26 02:05:27;;;;;;;5.97;4.13;;;;;;;12.68;73.81;102398.09;7392507;19;20039;-65
2023/09/26 02:07:55;;;;;;;7.93;4.80;;;;;;;12.59;73.80;102395.94;7391687;19;20026;-62
2023/09/26 02:10:22;;;;;;;7.32;4.65;;;;;;;12.59;73.82;102393.28;7390239;19;20483;-62
2023/09/26 02:12:51;;;;;;;7.43;4.50;;;;;;;12.84;73.03;102387.44;7398151;19;20372;-62
2023/09/26 02:15:19;;;;;;;5.97;3.92;;;;;;;12.93;72.63;102389.56;7395642;19;20475;-62
2023/09/26 02:17:49;;;;;;;6.18;4.13;;;;;;;13.03;71.74;102384.59;7394851;19;20042;-62
2023/09/26 02:20:18;;;;;;;6.45;4.32;;;;;;;13.12;71.37;102387.56;7397827;19;20038;-62
2023/09/26 02:22:48;;;;;;;7.70;4.50;;;;;;;13.10;71.22;102388.63;7398202;19;20022;-62
2023/09/26 02:25:19;;;;;;;6.53;4.32;;;;;;;13.07;70.82;102388.78;7398150;19;20488;-62
2023/09/26 02:27:47;;;;;;;8.63;5.70;;;;;;;12.78;71.85;102386.03;7395694;19;20018;-62
2023/09/26 02:30:24;;;;;;;7.95;5.38;;;;;;;12.41;73.56;102384.56;7397908;19;20015;-62
2023/09/26 02:32:51;;;;;;;8.70;4.95;;;;;;;12.62;72.83;102377.16;7396483;19;20025;-62
2023/09/26 02:35:19;;;;;;;6.65;4.65;;;;;;;12.78;71.77;102377.16;7395469;19;20026;-62
2023/09/26 02:37:47;;;;;;;7.82;3.97;;;;;;;12.86;71.54;102375.81;7395338;19;20395;-63
2023/09/26 02:40:15;;;;;;;6.60;4.18;;;;;;;12.79;71.33;102377.09;7397637;19;20187;-63
2023/09/26 02:42:43;;;;;;;6.32;3.83;;;;;;;12.67;71.90;102375.13;7397567;19;20576;-63
2023/09/26 02:45:13;;;;;;;7.05;4.30;;;;;;;12.81;70.71;102380.50;7397547;19;20018;-63
2023/09/26 02:47:42;;;;;;;6.55;4.10;;;;;;;12.91;70.30;102383.50;7396822;19;20027;-63
2023/09/26 02:50:11;;;;;;;7.32;3.75;;;;;;;12.81;70.08;102385.81;7395231;19;20074;-63
2023/09/26 02:52:41;;;;;;;5.80;3.40;;;;;;;12.84;70.12;102377.69;7397164;19;20015;-63
2023/09/26 02:55:09;;;;;;;6.50;3.95;;;;;;;12.64;70.80;102380.63;7395572;19;20370;-63
2023/09/26 02:57:37;;;;;;;6.13;3.60;;;;;;;12.25;72.37;102375.69;7395203;19;20019;-63
2023/09/26 03:00:18;;;;;;;5.20;3.22;;;;;;;12.16;72.89;102371.75;7396236;19;20018;-63
2023/09/26 03:02:47;;;;;;;4.90;2.95;;;;;;;12.46;71.83;102371.00;7396971;19;20039;-63
2023/09/26 03:05:17;;;;;;;5.55;3.50;;;;;;;12.67;70.88;102364.50;7396987;19;20094;-63
2023/09/26 03:07:45;;;;;;;5.47;3.60;;;;;;;12.32;71.27;102362.00;7396261;19;20074;-63
2023/09/26 03:10:13;;;;;;;4.45;3.00;;;;;;;12.49;71.06;102365.53;7396031;19;20023;-63
2023/09/26 03:12:46;;;;;;;3.67;2.67;;;;;;;12.65;70.59;102363.72;7396491;19;20486;-63
2023/09/26 03:15:14;;;;;;;6.47;2.80;;;;;;;12.69;70.32;102355.47;7394619;19;20022;-63
2023/09/26 03:17:42;;;;;;;4.57;2.90;;;;;;;12.71;70.11;102346.56;7396208;19;20014;-63
2023/09/26 03:20:14;;;;;;;3.97;2.83;;;;;;;12.66;70.16;102346.81;7395479;19;20026;-63
2023/09/26 03:22:42;;;;;;;5.95;3.05;;;;;;;12.66;70.55;102347.66;7395187;19;20027;-64
2023/09/26 03:25:11;;;;;;;4.97;2.75;;;;;;;12.33;71.17;102346.94;7395542;19;20019;-64
2023/09/26 03:27:39;;;;;;;4.65;3.33;;;;;;;12.03;72.47;102342.34;7395619;19;20025;-64
2023/09/26 03:30:08;;;;;;;6.85;3.67;;;;;;;11.86;73.37;102345.03;7395582;19;20019;-64
2023/09/26 03:32:35;;;;;;;4.78;3.03;;;;;;;11.83;73.76;102340.78;7394022;19;20030;-65
2023/09/26 03:35:05;;;;;;;5.70;3.60;;;;;;;11.83;73.94;102345.16;7394310;19;20086;-64
2023/09/26 03:37:32;;;;;;;9.88;4.20;;;;;;;11.86;74.22;102332.63;7395540;19;20010;-65
2023/09/26 03:40:00;;;;;;;8.63;4.32;;;;;;;11.85;74.05;102336.22;7393783;19;20483;-65
2023/09/26 03:42:28;;;;;;;7.10;3.67;;;;;;;12.03;73.89;102344.16;7395311;19;20032;-65
2023/09/26 03:44:55;;;;;;;5.90;3.97;;;;;;;12.32;72.61;102332.75;7395766;19;20388;-65
2023/09/26 03:47:24;;;;;;;7.28;4.18;;;;;;;12.47;72.33;102341.69;7395515;19;20023;-65
2023/09/26 03:49:52;;;;;;;7.00;4.00;;;;;;;12.34;72.66;102343.31;7391050;19;20050;-65
2023/09/26 03:52:20;;;;;;;7.05;4.38;;;;;;;12.05;73.79;102334.28;7393838;19;20019;-65
2023/09/26 03:54:48;;;;;;;8.15;4.60;;;;;;;11.93;74.66;102336.66;7394020;19;20019;-65
2023/09/26 03:57:15;;;;;;;7.97;4.28;;;;;;;11.87;74.93;102331.72;7395300;19;20026;-65
2023/09/26 03:59:47;;;;;;;7.03;3.75;;;;;;;12.18;73.85;102335.34;7391926;19;20021;-65
2023/09/26 04:02:15;;;;;;;6.18;4.10;;;;;;;12.42;72.99;102341.94;7394565;19;20015;-65
2023/09/26 04:04:43;;;;;;;6.93;4.00;;;;;;;12.55;72.10;102347.41;7395012;19;20045;-65
2023/09/26 04:07:13;;;;;;;7.47;4.57;;;;;;;12.38;72.72;102351.03;7393083;19;20357;-65
2023/09/26 04:09:41;;;;;;;8.38;4.18;;;;;;;12.25;73.24;102351.78;7392001;19;20018;-65
2023/09/26 04:12:09;;;;;;;7.65;4.13;;;;;;;12.19;73.64;102353.00;7394902;19;20042;-65
2023/09/26 04:14:36;;;;;;;6.97;3.70;;;;;;;12.34;72.76;102353.94;7393593;19;20050;-65
2023/09/26 04:17:04;;;;;;;5.57;3.13;;;;;;;12.37;72.23;102346.66;7393966;19;20028;-65
2023/09/26 04:19:32;;;;;;;7.53;3.63;;;;;;;12.38;71.88;102336.91;7391824;19;20050;-65
2023/09/26 04:21:59;;;;;;;5.45;3.30;;;;;;;12.40;71.60;102340.31;7394423;19;20029;-65
2023/09/26 04:24:27;;;;;;;5.13;2.90;;;;;;;12.37;71.11;102335.19;7393751;19;20019;-65
2023/09/26 04:26:55;;;;;;;4.45;2.88;;;;;;;12.43;70.55;102332.16;7393509;19;20576;-65
2023/09/26 04:29:23;;;;;;;6.68;2.70;;;;;;;12.37;70.40;102333.38;7391811;19;20025;-65
2023/09/26 04:31:50;;;;;;;5.57;2.85;;;;;;;12.13;70.78;102332.97;7394017;19;20018;-65
2023/09/26 04:34:18;;;;;;;4.60;2.80;;;;;;;11.83;71.67;102332.81;7391252;19;20519;-65
2023/09/26 04:36:45;;;;;;;5.15;3.10;;;;;;;11.55;72.65;102332.50;7393605;19;20499;-65
2023/09/26 04:39:13;;;;;;;3.58;2.70;;;;;;;11.72;72.50;102337.81;7389973;19;20421;-63
2023/09/26 04:41:41;;;;;;;5.03;2.95;;;;;;;12.00;71.38;102341.66;7393457;19;20399;-63
2023/09/26 04:44:08;;;;;;;3.38;2.20;;;;;;;12.11;70.80;102341.94;7393972;19;20022;-63
2023/09/26 04:46:36;;;;;;;4.20;2.65;;;;;;;12.15;70.49;102340.81;7393676;19;20024;-63
2023/09/26 04:49:04;;;;;;;4.53;2.80;;;;;;;12.26;70.07;102338.44;7391711;19;20022;-64
2023/09/26 04:51:32;;;;;;;6.13;3.15;;;;;;;12.17;70.48;102337.16;7391571;19;20022;-64
2023/09/26 04:54:01;;;;;;;6.85;2.95;;;;;;;12.16;70.55;102334.56;7393373;19;20022;-64
2023/09/26 04:56:29;;;;;;;4.97;2.55;;;;;;;12.15;70.41;102335.50;7392778;19;20011;-64
2023/09/26 04:58:56;;;;;;;4.70;2.42;;;;;;;12.14;70.38;102328.50;7391630;19;20047;-64
2023/09/26 05:01:28;;;;;;;4.10;2.50;;;;;;;12.19;69.83;102334.41;7392558;19;20381;-64
2023/09/26 05:03:55;;;;;;;4.38;2.67;;;;;;;12.23;69.83;102329.78;7392931;19;20026;-64
2023/09/26 05:06:23;;;;;;;5.07;2.90;;;;;;;12.26;69.56;102325.16;7392484;19;20440;-64
2023/09/26 05:08:50;;;;;;;3.90;2.70;;;;;;;12.27;69.57;102329.53;7390871;19;20124;-65
2023/09/26 05:11:18;;;;;;;4.60;2.78;;;;;;;12.22;69.77;102328.06;7392524;19;20487;-65
2023/09/26 05:13:45;;;;;;;3.47;2.42;;;;;;;11.92;70.67;102334.09;7392445;19;20712;-65
2023/09/26 05:16:14;;;;;;;4.18;2.80;;;;;;;11.75;71.22;102334.09;7390965;19;20019;-65
2023/09/26 05:18:42;;;;;;;5.35;2.85;;;;;;;11.47;72.79;102317.00;7390740;19;20082;-65
2023/09/26 05:21:11;;;;;;;6.68;3.40;;;;;;;11.34;72.98;102326.53;7392037;19;20083;-65
2023/09/26 05:23:39;;;;;;;7.50;4.28;;;;;;;11.30;73.63;102323.19;7392320;19;20022;-65
2023/09/26 05:26:08;;;;;;;7.97;4.57;;;;;;;11.39;73.79;102321.84;7392290;19;20035;-64
2023/09/26 05:28:37;;;;;;;9.15;4.55;;;;;;;11.71;72.58;102325.44;7390652;19;20447;-64
2023/09/26 05:31:05;;;;;;;8.00;4.78;;;;;;;11.68;72.87;102326.50;7392939;19;20022;-64
2023/09/26 05:33:33;;;;;;;10.93;6.18;;;;;;;11.65;73.12;102323.16;7393140;19;20032;-64
2023/09/26 05:36:00;;;;;;;12.60;7.70;;;;;;;11.56;73.55;102316.53;7392424;19;20023;-64
2023/09/26 05:38:28;;;;;;;12.18;6.78;;;;;;;11.44;74.49;102317.16;7392159;19;20018;-63
2023/09/26 05:40:56;;;;;;;13.52;7.18;;;;;;;11.81;73.69;102318.72;7391796;19;20078;-63
2023/09/26 05:43:23;;;;;;;9.60;5.28;;;;;;;12.20;72.08;102329.00;7389475;19;20381;-63
2023/09/26 05:45:51;;;;;;;8.00;4.03;;;;;;;12.38;71.92;102329.78;7396792;19;20035;-63
2023/09/26 05:48:19;;;;;;;9.68;5.28;;;;;;;12.47;71.67;102323.09;7397448;19;20018;-63
2023/09/26 05:50:47;;;;;;;8.82;4.15;;;;;;;12.55;71.20;102314.69;7399199;19;20022;-63
2023/09/26 05:53:14;;;;;;;8.68;3.90;;;;;;;12.60;70.80;102315.28;7397348;19;20011;-63
2023/09/26 05:55:42;;;;;;;7.35;4.10;;;;;;;12.69;70.91;102323.56;7397388;19;20029;-63
2023/09/26 05:58:09;;;;;;;7.35;4.07;;;;;;;12.80;70.71;102311.47;7397991;19;20132;-66
2023/09/26 06:00:37;;;;;;;7.82;4.32;;;;;;;12.88;71.13;102306.56;7396818;19;20048;-66
2023/09/26 06:03:05;;;;;;;7.10;4.30;;;;;;;12.97;70.95;102305.16;7397704;19;20021;-64
2023/09/26 06:05:36;;;;;;;9.35;4.57;;;;;;;13.00;71.53;102316.47;7398572;19;20086;-64
2023/09/26 06:08:04;;;;;;;8.70;4.03;;;;;;;13.02;71.47;102311.09;7397632;19;20021;-64
2023/09/26 06:10:31;;;;;;;9.55;4.10;;;;;;;13.03;71.34;102312.78;7397020;19;20019;-64
2023/09/26 06:12:59;;;;;;;7.47;3.97;;;;;;;13.08;71.43;102313.38;7398833;19;20027;-64
2023/09/26 06:15:27;;;;;;;8.85;4.40;;;;;;;13.12;71.63;102312.22;7396891;19;20044;-64
2023/09/26 06:18:02;;;;;;;6.93;3.72;;;;;;;13.22;71.46;102310.75;7395249;19;20025;-64
2023/09/26 06:20:30;;;;;;;7.65;4.10;;;;;;;13.34;71.74;102306.53;7398330;19;20014;-65
2023/09/26 06:22:58;;;;;;;7.63;4.07;;;;;;;13.44;71.91;102304.19;7396648;19;20074;-65
2023/09/26 06:25:25;;;;;;;7.65;4.07;;;;;;;13.50;71.86;102301.97;7397897;19;20011;-64
2023/09/26 06:28:00;;;;;;;7.30;4.40;;;;;;;13.56;71.92;102308.75;7396457;19;20015;-64
2023/09/26 06:30:28;;;;;;;8.50;4.35;;;;;;;13.67;72.12;102310.75;7396381;19;20022;-64
2023/09/26 06:32:56;;;;;;;9.65;4.60;;;;;;;13.75;72.17;102321.78;7398232;19;20018;-64
2023/09/26 06:35:23;;;;;;;12.90;4.85;;;;;;;13.78;72.23;102322.44;7396561;19;20018;-63
2023/09/26 06:37:51;;;;;;;7.28;5.05;;;;;;;13.67;73.26;102313.41;7395356;19;20033;-63
2023/09/26 06:40:18;;;;;;;9.25;4.70;;;;;;;13.70;73.32;102314.09;7397998;19;20021;-65
2023/09/26 06:42:46;;;;;;;8.90;4.90;;;;;;;13.74;73.18;102314.75;7397238;19;20035;-65
2023/09/26 06:45:14;;;;;;;8.45;4.78;;;;;;;13.78;73.55;102319.78;7397872;19;20022;-65
2023/09/26 06:47:41;;;;;;;11.30;6.13;;;;;;;13.98;72.92;102321.19;7395665;19;20022;-64
2023/09/26 06:50:10;;;;;;;13.00;6.40;;;;;;;13.98;73.26;102331.00;7396817;19;20364;-64
2023/09/26 06:52:38;;;;;;;9.93;5.50;;;;;;;14.04;73.08;102325.25;7397301;19;20018;-64
2023/09/26 06:55:10;;;;;;;12.38;5.95;;;;;;;14.02;73.01;102325.38;7395697;19;20342;-64
2023/09/26 06:57:38;;;;;;;10.15;5.38;;;;;;;14.00;72.92;102329.06;7393870;19;20035;-64
2023/09/26 07:00:12;;;;;;;12.07;6.80;;;;;;;14.01;73.34;102320.16;7396164;19;20019;-64
2023/09/26 07:02:40;;;;;;;12.07;6.45;;;;;;;14.06;73.27;102315.38;7396860;19;20086;-64
2023/09/26 07:05:08;;;;;;;13.18;6.20;;;;;;;14.15;73.57;102317.44;7396405;19;20022;-64
2023/09/26 07:07:35;;;;;;;9.48;5.55;;;;;;;14.25;73.26;102310.59;7396644;19;20529;-64
2023/09/26 07:10:03;;;;;;;11.88;5.95;;;;;;;14.38;73.05;102318.63;7396133;19;20010;-64
2023/09/26 07:12:32;;;;;;;10.38;5.60;;;;;;;14.42;72.89;102305.97;7396586;19;20023;-64
2023/09/26 07:15:00;;;;;;;9.82;5.80;;;;;;;14.49;72.86;102304.63;7396004;19;20111;-64
2023/09/26 07:17:28;;;;;;;9.43;5.57;;;;;;;14.60;72.85;102312.81;7396563;19;20042;-64
2023/09/26 07:19:56;;;;;;;10.10;5.80;;;;;;;14.59;73.13;102324.44;7393134;19;20015;-64
2023/09/26 07:22:24;;;;;;;9.55;5.57;;;;;;;14.60;73.55;102328.81;7396726;19;20026;-64
2023/09/26 07:24:54;;;;;;;8.82;5.28;;;;;;;14.63;73.58;102331.28;7396007;19;20018;-64
2023/09/26 07:27:22;;;;;;;12.00;5.75;;;;;;;14.68;73.54;102328.28;7396200;19;20014;-64
2023/09/26 07:29:49;;;;;;;10.88;5.80;;;;;;;14.69;73.73;102324.66;7391244;19;20487;-64
2023/09/26 07:32:17;;;;;;;10.02;5.80;;;;;;;14.76;74.04;102331.31;7395958;19;20022;-64
2023/09/26 07:34:45;;;;;;;11.15;5.53;;;;;;;14.87;73.71;102332.31;7395871;19;20348;-64
2023/09/26 07:37:12;;;;;;;9.20;5.30;;;;;;;14.94;73.47;102326.56;7394156;19;20014;-64
2023/09/26 07:39:44;;;;;;;9.82;5.25;;;;;;;15.02;73.27;102326.91;7393282;19;20358;-64
2023/09/26 07:42:12;;;;;;;10.75;6.32;;;;;;;14.96;73.49;102328.19;7395853;19;20479;-64
2023/09/26 07:44:40;;;;;;;8.52;5.80;;;;;;;14.90;73.74;102317.91;7395351;19;20019;-64
2023/09/26 07:47:07;;;;;;;10.95;6.88;;;;;;;14.87;73.84;102315.44;7395106;19;20032;-64
2023/09/26 07:49:35;;;;;;;11.73;6.15;;;;;;;14.92;74.10;102320.47;7392558;19;20010;-64
2023/09/26 07:52:03;;;;;;;11.20;6.15;;;;;;;15.00;74.43;102310.16;7395261;19;20018;-66
2023/09/26 07:54:32;;;;;;;9.73;5.30;;;;;;;15.10;74.39;102314.75;7395187;19;20011;-63
2023/09/26 07:56:59;;;;;;;9.57;5.57;;;;;;;15.22;74.25;102313.06;7393469;19;20025;-63
2023/09/26 07:59:27;;;;;;;8.55;5.20;;;;;;;15.32;74.20;102315.97;7392673;19;20086;-64
2023/09/26 08:01:54;;;;;;;10.30;5.65;;;;;;;15.47;73.75;102312.25;7394656;19;20018;-64
2023/09/26 08:04:22;;;;;;;12.32;5.47;;;;;;;15.60;72.93;102313.06;7392651;19;20383;-64
2023/09/26 08:06:51;;;;;;;10.38;5.57;;;;;;;15.69;72.54;102316.97;7395103;19;20401;-64
2023/09/26 08:09:23;;;;;;;8.63;5.50;;;;;;;15.83;72.70;102310.63;7389570;19;20038;-64
2023/09/26 08:11:50;;;;;;;8.43;4.78;;;;;;;15.99;71.82;102308.59;7394891;19;20018;-64
2023/09/26 08:14:18;;;;;;;9.50;4.97;;;;;;;16.06;71.35;102301.84;7393027;19;20495;-63
2023/09/26 08:16:47;;;;;;;9.02;5.15;;;;;;;16.11;71.42;102300.66;7392908;19;20106;-63
2023/09/26 08:19:15;;;;;;;8.20;4.53;;;;;;;16.13;71.03;102306.75;7392219;19;20022;-63
2023/09/26 08:21:44;;;;;;;8.82;4.40;;;;;;;16.17;70.39;102313.56;7394319;19;20029;-64
2023/09/26 08:24:12;;;;;;;10.75;4.45;;;;;;;16.13;70.02;102314.75;7394419;19;20487;-63
2023/09/26 08:26:39;;;;;;;8.07;4.13;;;;;;;16.06;70.03;102309.00;7394171;19;20015;-63
2023/09/26 08:29:07;;;;;;;6.93;3.65;;;;;;;16.09;70.04;102319.47;7391926;19;20046;-63
2023/09/26 08:31:35;;;;;;;9.15;3.95;;;;;;;16.16;69.88;102320.75;7393827;19;20069;-63
2023/09/26 08:34:03;;;;;;;8.02;3.85;;;;;;;16.18;69.72;102324.16;7393994;19;20022;-64
2023/09/26 08:36:32;;;;;;;7.10;3.65;;;;;;;16.18;69.86;102333.97;7393387;19;20050;-64
2023/09/26 08:38:59;;;;;;;8.07;4.60;;;;;;;16.24;69.89;102325.53;7391455;19;20433;-64
2023/09/26 08:41:27;;;;;;;9.23;4.25;;;;;;;16.37;69.82;102326.38;7393153;19;20014;-64
2023/09/26 08:43:54;;;;;;;10.82;4.55;;;;;;;16.47;68.91;102323.84;7393813;19;20038;-65
2023/09/26 08:46:22;;;;;;;9.15;4.95;;;;;;;16.49;68.44;102317.44;7393288;19;20029;-64
2023/09/26 08:48:51;;;;;;;9.70;4.68;;;;;;;16.47;68.79;102316.69;7390360;19;20427;-64
2023/09/26 08:51:19;;;;;;;9.63;4.85;;;;;;;16.57;68.52;102320.38;7393097;19;20090;-63
2023/09/26 08:53:46;;;;;;;8.38;4.93;;;;;;;16.69;68.07;102317.78;7392736;19;20039;-63
2023/09/26 08:56:14;;;;;;;11.35;4.72;;;;;;;16.79;67.81;102325.03;7392655;19;20483;-63
2023/09/26 08:58:42;;;;;;;11.32;4.80;;;;;;;16.87;67.65;102320.94;7391428;19;20022;-63
2023/09/26 09:01:10;;;;;;;11.52;5.47;;;;;;;16.89;67.70;102316.31;7392897;19;20351;-63
2023/09/26 09:03:37;;;;;;;10.88;4.53;;;;;;;16.90;67.83;102318.00;7393185;19;20523;-63
2023/09/26 09:06:05;;;;;;;9.85;4.88;;;;;;;16.89;67.94;102316.31;7393031;19;20085;-63
2023/09/26 09:08:32;;;;;;;10.52;4.57;;;;;;;16.87;67.47;102305.72;7390985;19;20022;-63
2023/09/26 09:11:00;;;;;;;9.35;4.72;;;;;;;16.88;67.60;102307.44;7392768;19;20562;-63
2023/09/26 09:13:37;;;;;;;14.65;4.75;;;;;;;16.94;67.19;102298.06;7392357;19;20388;-63
2023/09/26 09:16:06;;;;;;;10.52;4.65;;;;;;;16.95;67.73;102291.75;7391598;19;20362;-63
2023/09/26 09:18:35;;;;;;;13.00;4.85;;;;;;;17.02;67.39;102299.22;7390963;19;20357;-63
2023/09/26 09:21:24;;;;;;;8.82;3.70;;;;;;;17.19;66.20;102302.41;7391334;19;20562;-63
2023/09/26 09:23:54;;;;;;;8.50;3.80;;;;;;;17.19;66.44;102291.69;7392361;19;20036;-63
2023/09/26 09:26:23;;;;;;;7.32;3.90;;;;;;;17.22;66.25;102288.78;7393166;19;20018;-63
2023/09/26 09:28:59;;;;;;;6.32;3.70;;;;;;;17.28;65.96;102281.16;7391118;19;20015;-65
2023/09/26 09:31:29;;;;;;;8.35;3.70;;;;;;;17.37;66.10;102276.88;7390909;19;20487;-65
2023/09/26 09:33:57;;;;;;;9.15;3.75;;;;;;;17.53;65.33;102281.91;7393159;19;20022;-65
2023/09/26 09:36:25;;;;;;;9.27;3.40;;;;;;;17.63;64.90;102279.31;7391222;19;20043;-64
2023/09/26 09:38:55;;;;;;;9.45;3.65;;;;;;;17.67;64.99;102284.34;7388719;19;20041;-64
2023/09/26 09:41:22;;;;;;;7.75;3.58;;;;;;;17.70;65.33;102278.72;7392174;19;20371;-64
2023/09/26 09:43:50;;;;;;;7.18;3.20;;;;;;;17.76;64.95;102275.59;7392124;19;20040;-64
2023/09/26 09:46:22;;;;;;;6.75;3.30;;;;;;;17.84;64.56;102263.41;7391529;19;20023;-64
2023/09/26 09:48:56;;;;;;;8.07;3.63;;;;;;;17.88;64.96;102263.03;7388515;19;20030;-65
2023/09/26 09:51:24;;;;;;;7.90;3.30;;;;;;;17.80;65.33;102256.59;7390590;19;20022;-65
2023/09/26 09:53:55;;;;;;;9.00;3.40;;;;;;;17.80;65.15;102259.28;7390565;19;20030;-65
2023/09/26 09:56:26;;;;;;;5.60;3.10;;;;;;;17.78;65.34;102254.91;7391457;19;20015;-65
2023/09/26 09:59:02;;;;;;;6.55;3.30;;;;;;;17.83;64.87;102254.53;7389836;19;20018;-65
2023/09/26 10:01:30;;;;;;;7.88;3.67;;;;;;;17.87;65.02;102252.44;7391274;19;20517;-63
2023/09/26 10:04:01;;;;;;;8.35;3.63;;;;;;;17.97;64.72;102259.63;7391501;19;20039;-64
2023/09/26 10:06:30;;;;;;;7.15;3.33;;;;;;;18.06;64.14;102257.16;7391406;19;20046;-64
2023/09/26 10:08:59;;;;;;;9.60;3.80;;;;;;;18.10;64.24;102254.09;7389024;19;20102;-64
2023/09/26 10:11:28;;;;;;;8.45;3.30;;;;;;;18.17;64.40;102254.47;7391138;19;20014;-64
2023/09/26 10:13:59;;;;;;;6.32;3.30;;;;;;;18.24;63.59;102259.19;7390878;19;20022;-65
2023/09/26 10:16:29;;;;;;;8.13;3.65;;;;;;;18.25;63.91;102250.16;7390366;19;20039;-64
2023/09/26 10:18:59;;;;;;;7.90;3.60;;;;;;;18.27;63.57;102247.34;7389015;19;20023;-62
2023/09/26 10:21:30;;;;;;;7.63;3.63;;;;;;;18.27;64.84;102242.81;7391282;19;20018;-63
2023/09/26 10:24:13;;;;;;;8.52;3.83;;;;;;;18.38;64.10;102247.31;7390931;19;20048;-63
2023/09/26 10:26:48;;;;;;;10.02;3.90;;;;;;;18.46;63.86;102238.63;7391378;19;20014;-63
2023/09/26 10:29:28;;;;;;;8.80;3.88;;;;;;;18.62;62.82;102230.13;7388899;19;20343;-63
2023/09/26 10:31:58;;;;;;;6.00;3.85;;;;;;;18.65;62.78;102229.88;7392180;19;20074;-64
2023/09/26 10:34:28;;;;;;;7.40;3.25;;;;;;;18.68;62.72;102224.25;7397302;19;20018;-64
2023/09/26 10:37:19;;;;;;;5.57;3.22;;;;;;;18.73;63.10;102224.75;7395546;19;20052;-64
2023/09/26 10:39:47;;;;;;;6.03;3.38;;;;;;;18.84;63.26;102227.38;7395128;19;20025;-64
2023/09/26 10:42:20;;;;;;;6.20;3.63;;;;;;;18.97;62.81;102224.50;7396950;19;20044;-64
2023/09/26 10:44:51;;;;;;;9.02;3.60;;;;;;;18.95;62.91;102223.78;7397507;19;20022;-64
2023/09/26 10:47:22;;;;;;;7.22;3.67;;;;;;;19.02;62.48;102222.28;7397303;19;20467;-64
2023/09/26 10:49:50;;;;;;;6.35;4.00;;;;;;;19.07;61.89;102221.88;7392411;19;20025;-64
2023/09/26 10:52:17;;;;;;;6.88;3.83;;;;;;;19.22;61.43;102224.06;7397338;19;20021;-64
2023/09/26 10:54:45;;;;;;;6.57;3.20;;;;;;;19.33;61.32;102216.91;7397311;19;20050;-64
2023/09/26 10:57:18;;;;;;;6.45;3.10;;;;;;;19.39;61.32;102216.41;7395957;19;20054;-65
2023/09/26 10:59:45;;;;;;;7.28;3.30;;;;;;;19.33;61.12;102217.75;7393164;19;20019;-64
2023/09/26 11:02:13;;;;;;;5.97;3.25;;;;;;;19.32;61.37;102216.06;7396552;19;20018;-65
2023/09/26 11:04:41;;;;;;;6.15;2.95;;;;;;;19.33;60.95;102208.84;7396683;19;20039;-64
2023/09/26 11:07:29;;;;;;;6.68;3.08;;;;;;;19.24;61.77;102210.53;7396576;19;20025;-64
2023/09/26 11:09:57;;;;;;;5.70;3.00;;;;;;;19.36;60.72;102209.44;7395338;19;20022;-64
2023/09/26 11:12:26;;;;;;;5.18;3.20;;;;;;;19.43;60.75;102204.38;7396071;19;20085;-64
2023/09/26 11:14:54;;;;;;;5.90;2.97;;;;;;;19.44;60.85;102204.25;7396042;19;20348;-64
2023/09/26 11:17:26;;;;;;;6.78;3.17;;;;;;;19.50;60.54;102202.88;7395165;19;20048;-64
2023/09/26 11:19:57;;;;;;;6.88;2.88;;;;;;;19.55;60.72;102197.06;7393686;19;20018;-65
2023/09/26 11:22:26;;;;;;;5.47;2.95;;;;;;;19.48;61.18;102194.91;7396500;19;20014;-64
2023/09/26 11:25:07;;;;;;;5.28;2.70;;;;;;;19.49;61.08;102203.81;7396646;19;20037;-64
2023/09/26 11:27:45;;;;;;;5.85;2.88;;;;;;;19.48;60.36;102197.59;7396339;19;20018;-64
2023/09/26 11:30:18;;;;;;;5.88;2.80;;;;;;;19.61;59.86;102197.38;7399453;19;20684;-64
2023/09/26 11:32:48;;;;;;;7.80;3.25;;;;;;;19.62;60.01;102196.44;7396395;19;20097;-64